createdAt,value
2018-11-27T00:00:39.467Z,33.13
2018-11-27T00:03:08.563Z,32.30
2018-11-27T00:05:38.363Z,42.30
2018-11-27T00:08:07.963Z,39.97
2018-11-27T00:10:38.498Z,40.83
2018-11-27T00:13:07.264Z,41.30
2018-11-27T00:15:36.072Z,40.80
2018-11-27T00:18:04.483Z,41.27
2018-11-27T00:20:33.139Z,40.83
2018-11-27T00:23:01.540Z,40.67
2018-11-27T00:25:30.131Z,39.53
2018-11-27T00:27:58.534Z,39.90
2018-11-27T00:30:26.878Z,40.30
2018-11-27T00:32:55.252Z,40.50
2018-11-27T00:35:23.971Z,40.27
2018-11-27T00:37:52.347Z,39.73
2018-11-27T00:40:23.589Z,40.03
2018-11-27T00:42:51.975Z,39.20
2018-11-27T00:45:21.415Z,40.90
2018-11-27T00:47:50.606Z,41.07
2018-11-27T00:50:23.310Z,39.93
2018-11-27T00:52:51.685Z,39.67
2018-11-27T00:55:20.769Z,38.43
2018-11-27T00:57:50.618Z,38.77
2018-11-27T01:00:20.154Z,36.53
2018-11-27T01:02:48.881Z,37.50
2018-11-27T01:05:18.374Z,36.37
2018-11-27T01:07:47.904Z,32.80
2018-11-27T01:10:20.502Z,33.93
2018-11-27T01:12:48.866Z,45.50
2018-11-27T01:15:17.336Z,44.57
2018-11-27T01:17:47.880Z,44.77
2018-11-27T01:20:20.556Z,45.23
2018-11-27T01:22:55.610Z,45.00
2018-11-27T01:25:23.998Z,44.50
2018-11-27T01:27:52.388Z,45.83
2018-11-27T01:30:22.166Z,44.63
2018-11-27T01:32:50.972Z,44.60
2018-11-27T01:35:21.775Z,45.50
2018-11-27T01:37:51.393Z,44.77
2018-11-27T01:40:21.093Z,44.30
2018-11-27T01:42:51.587Z,44.10
2018-11-27T01:45:21.253Z,43.80
2018-11-27T01:47:49.813Z,45.07
2018-11-27T01:50:19.233Z,43.43
2018-11-27T01:52:47.727Z,42.00
2018-11-27T01:55:17.449Z,44.60
2018-11-27T01:57:45.942Z,43.43
2018-11-27T02:00:20.740Z,42.07
2018-11-27T02:02:49.548Z,41.47
2018-11-27T02:05:18.276Z,39.33
2018-11-27T02:07:46.660Z,38.63
2018-11-27T02:10:15.052Z,37.97
2018-11-27T02:12:45.093Z,46.77
2018-11-27T02:15:16.745Z,48.43
2018-11-27T02:17:45.185Z,48.13
2018-11-27T02:20:13.898Z,47.60
2018-11-27T02:22:42.691Z,48.13
2018-11-27T02:25:16.412Z,47.37
2018-11-27T02:27:45.184Z,49.10
2018-11-27T02:30:14.977Z,47.07
2018-11-27T02:32:43.444Z,47.17
2018-11-27T02:35:12.999Z,47.50
2018-11-27T02:37:42.054Z,39.77
2018-11-27T02:40:13.480Z,35.97
2018-11-27T02:42:42.393Z,35.87
2018-11-27T02:45:15.052Z,36.07
2018-11-27T02:47:44.270Z,38.33
2018-11-27T02:50:14.755Z,35.13
2018-11-27T02:52:43.161Z,36.07
2018-11-27T02:55:12.596Z,34.87
2018-11-27T02:57:41.309Z,36.17
2018-11-27T03:00:14.953Z,37.43
2018-11-27T03:02:43.372Z,35.93
2018-11-27T03:05:23.970Z,37.70
2018-11-27T03:07:52.360Z,35.37
2018-11-27T03:10:21.124Z,36.43
2018-11-27T03:12:49.548Z,35.67
2018-11-27T03:15:18.363Z,34.80
2018-11-27T03:17:47.428Z,36.77
2018-11-27T03:20:16.842Z,34.67
2018-11-27T03:22:45.264Z,36.33
2018-11-27T03:25:15.774Z,35.20
2018-11-27T03:27:44.911Z,34.60
2018-11-27T03:30:16.324Z,34.93
2018-11-27T03:32:45.082Z,37.00
2018-11-27T03:35:18.608Z,35.37
2018-11-27T03:37:47.579Z,36.83
2018-11-27T03:40:18.544Z,34.77
2018-11-27T03:42:46.956Z,36.10
2018-11-27T03:45:16.059Z,36.27
2018-11-27T03:47:44.538Z,35.73
2018-11-27T03:50:16.490Z,36.43
2018-11-27T03:52:44.899Z,34.47
2018-11-27T03:55:13.697Z,35.17
2018-11-27T03:57:42.069Z,34.97
2018-11-27T04:00:14.118Z,34.83
2018-11-27T04:02:42.602Z,36.20
2018-11-27T04:05:12.149Z,37.07
2018-11-27T04:07:40.552Z,37.27
2018-11-27T04:10:12.593Z,37.40
2018-11-27T04:12:40.960Z,34.90
2018-11-27T04:15:09.816Z,36.53
2018-11-27T04:17:38.213Z,35.27
2018-11-27T04:20:08.897Z,34.77
2018-11-27T04:22:37.496Z,35.87
2018-11-27T04:25:07.994Z,34.83
2018-11-27T04:27:36.350Z,35.27
2018-11-27T04:30:05.350Z,34.87
2018-11-27T04:32:33.736Z,34.17
2018-11-27T04:35:02.086Z,35.40
2018-11-27T04:37:30.453Z,34.10
2018-11-27T04:39:59.002Z,35.57
2018-11-27T04:42:27.368Z,34.53
2018-11-27T04:44:55.815Z,34.87
2018-11-27T04:47:24.263Z,36.47
2018-11-27T04:49:52.621Z,34.77
2018-11-27T04:52:21.019Z,33.90
2018-11-27T04:54:49.414Z,34.70
2018-11-27T04:57:17.768Z,35.27
2018-11-27T04:59:46.142Z,33.17
2018-11-27T05:02:14.528Z,34.60
2018-11-27T05:04:42.893Z,34.90
2018-11-27T05:07:11.288Z,35.30
2018-11-27T05:09:39.711Z,34.40
2018-11-27T05:12:08.095Z,33.70
2018-11-27T05:14:36.472Z,35.03
2018-11-27T05:17:05.401Z,35.90
2018-11-27T05:19:33.793Z,33.67
2018-11-27T05:22:02.518Z,33.43
2018-11-27T05:24:30.935Z,34.10
2018-11-27T05:26:59.323Z,34.17
2018-11-27T05:29:27.679Z,34.80
2018-11-27T05:31:56.071Z,34.77
2018-11-27T05:34:24.757Z,35.40
2018-11-27T05:36:53.161Z,34.63
2018-11-27T05:39:21.531Z,35.37
2018-11-27T05:41:49.903Z,34.47
2018-11-27T05:44:18.251Z,33.50
2018-11-27T05:46:46.935Z,34.60
2018-11-27T05:49:15.312Z,34.13
2018-11-27T05:51:43.696Z,34.23
2018-11-27T05:54:12.110Z,34.20
2018-11-27T05:56:40.498Z,33.20
2018-11-27T05:59:08.876Z,34.47
2018-11-27T06:01:37.294Z,33.93
2018-11-27T06:04:05.974Z,33.03
2018-11-27T06:06:34.351Z,33.70
2018-11-27T06:09:02.739Z,32.37
2018-11-27T06:11:31.147Z,34.03
2018-11-27T06:13:59.497Z,32.97
2018-11-27T06:16:27.885Z,33.77
2018-11-27T06:18:56.238Z,34.47
2018-11-27T06:21:24.699Z,33.07
2018-11-27T06:23:53.087Z,31.77
2018-11-27T06:26:21.481Z,33.80
2018-11-27T06:28:49.887Z,33.53
2018-11-27T06:31:18.274Z,33.67
2018-11-27T06:33:46.629Z,32.33
2018-11-27T06:36:14.990Z,33.77
2018-11-27T06:38:43.380Z,32.50
2018-11-27T06:41:11.816Z,32.90
2018-11-27T06:43:40.220Z,32.77
2018-11-27T06:46:08.610Z,32.90
2018-11-27T06:48:36.968Z,31.53
2018-11-27T06:51:05.904Z,33.23
2018-11-27T06:53:34.298Z,33.63
2018-11-27T06:56:02.677Z,32.83
2018-11-27T06:58:31.417Z,31.93
2018-11-27T07:00:59.788Z,34.33
2018-11-27T07:03:28.142Z,32.83
2018-11-27T07:05:56.532Z,32.53
2018-11-27T07:08:24.938Z,34.17
2018-11-27T07:10:53.299Z,32.97
2018-11-27T07:13:23.549Z,32.00
2018-11-27T07:15:52.200Z,33.17
2018-11-27T07:18:20.583Z,32.27
2018-11-27T07:20:48.991Z,33.57
2018-11-27T07:23:17.384Z,34.10
2018-11-27T07:25:45.758Z,33.53
2018-11-27T07:28:14.134Z,34.97
2018-11-27T07:30:42.717Z,32.67
2018-11-27T07:33:11.083Z,34.17
2018-11-27T07:35:39.504Z,33.57
2018-11-27T07:38:07.918Z,32.97
2018-11-27T07:40:36.271Z,32.57
2018-11-27T07:43:13.615Z,33.47
2018-11-27T07:45:42.268Z,34.20
2018-11-27T07:48:10.846Z,34.00
2018-11-27T07:50:39.256Z,32.80
2018-11-27T07:53:07.810Z,34.13
2018-11-27T07:55:36.254Z,33.13
2018-11-27T07:58:05.573Z,35.50
2018-11-27T08:00:34.411Z,32.67
2018-11-27T08:03:02.798Z,33.63
2018-11-27T08:05:40.080Z,32.03
2018-11-27T08:08:11.813Z,33.07
2018-11-27T08:10:40.450Z,33.07
2018-11-27T08:13:09.416Z,33.77
2018-11-27T08:15:37.807Z,33.10
2018-11-27T08:18:06.606Z,34.57
2018-11-27T08:20:35.320Z,33.40
2018-11-27T08:23:04.234Z,33.83
2018-11-27T08:25:32.627Z,33.57
2018-11-27T08:28:01.594Z,33.47
2018-11-27T08:30:30.821Z,32.77
2018-11-27T08:32:59.207Z,33.23
2018-11-27T08:35:29.203Z,32.90
2018-11-27T08:37:58.595Z,33.00
2018-11-27T08:40:28.218Z,32.47
2018-11-27T08:42:56.647Z,32.40
2018-11-27T08:45:25.822Z,32.73
2018-11-27T08:47:55.088Z,33.23
2018-11-27T08:50:24.412Z,33.37
2018-11-27T08:52:54.908Z,33.93
2018-11-27T08:55:26.491Z,33.00
2018-11-27T08:57:55.159Z,33.00
2018-11-27T09:00:24.674Z,33.03
2018-11-27T09:02:53.063Z,33.90
2018-11-27T09:05:21.497Z,32.70
2018-11-27T09:07:49.948Z,35.30
2018-11-27T09:10:20.637Z,34.03
2018-11-27T09:12:49.012Z,32.43
2018-11-27T09:15:18.602Z,34.03
2018-11-27T09:18:19.266Z,34.33
2018-11-27T09:20:47.668Z,33.53
2018-11-27T09:23:16.228Z,33.30
2018-11-27T09:25:44.620Z,34.13
2018-11-27T09:28:13.062Z,35.27
2018-11-27T09:30:41.442Z,33.27
2018-11-27T09:33:10.227Z,32.77
2018-11-27T09:35:38.954Z,32.07
2018-11-27T09:38:08.174Z,34.10
2018-11-27T09:40:36.792Z,33.97
2018-11-27T09:43:06.294Z,32.93
2018-11-27T09:45:34.982Z,33.60
2018-11-27T09:48:03.378Z,31.60
2018-11-27T09:50:31.732Z,29.97
2018-11-27T09:53:00.178Z,30.83
2018-11-27T09:55:29.025Z,30.43
2018-11-27T09:57:59.313Z,29.97
2018-11-27T10:00:27.238Z,31.60
2018-11-27T10:02:59.040Z,29.03
2018-11-27T10:05:27.440Z,29.57
2018-11-27T10:07:56.147Z,28.43
2018-11-27T10:10:25.133Z,29.77
2018-11-27T10:12:56.616Z,30.10
2018-11-27T10:15:30.549Z,29.20
2018-11-27T10:18:02.967Z,29.47
2018-11-27T10:20:36.271Z,30.23
2018-11-27T10:23:06.963Z,29.00
2018-11-27T10:25:35.996Z,29.30
2018-11-27T10:28:04.472Z,29.37
2018-11-27T10:30:32.843Z,29.70
2018-11-27T10:33:01.259Z,29.73
2018-11-27T10:36:00.659Z,30.97
2018-11-27T10:38:29.131Z,31.07
2018-11-27T10:40:57.486Z,32.50
2018-11-27T10:43:25.859Z,33.20
2018-11-27T10:45:54.231Z,31.60
2018-11-27T10:48:22.605Z,33.60
2018-11-27T10:50:51.035Z,33.20
2018-11-27T10:53:19.393Z,34.50
2018-11-27T10:55:47.755Z,34.40
2018-11-27T10:58:16.195Z,33.77
2018-11-27T11:00:50.069Z,33.27
2018-11-27T11:03:24.984Z,32.93
2018-11-27T11:05:55.755Z,32.93
2018-11-27T11:08:24.494Z,34.17
2018-11-27T11:10:53.030Z,36.77
2018-11-27T11:13:21.430Z,32.87
2018-11-27T11:15:50.269Z,32.50
2018-11-27T11:18:18.664Z,32.03
2018-11-27T11:20:47.036Z,32.17
2018-11-27T11:23:15.460Z,31.80
2018-11-27T11:25:44.613Z,32.43
2018-11-27T11:28:12.425Z,33.37
2018-11-27T11:30:40.800Z,31.13
2018-11-27T11:33:09.366Z,32.30
2018-11-27T11:35:37.797Z,31.47
2018-11-27T11:38:06.640Z,30.43
2018-11-27T11:40:35.011Z,30.63
2018-11-27T11:43:03.387Z,31.47
2018-11-27T11:45:31.746Z,31.37
2018-11-27T11:48:00.125Z,32.63
2018-11-27T11:50:30.111Z,31.47
2018-11-27T11:53:00.964Z,31.43
2018-11-27T11:55:29.343Z,31.30
2018-11-27T11:57:57.701Z,30.57
2018-11-27T12:00:43.307Z,32.03
2018-11-27T12:03:11.695Z,30.90
2018-11-27T12:05:40.335Z,32.50
2018-11-27T12:08:09.292Z,32.40
2018-11-27T12:10:38.463Z,31.50
2018-11-27T12:13:08.392Z,31.13
2018-11-27T12:15:37.111Z,31.57
2018-11-27T12:18:06.058Z,31.57
2018-11-27T12:23:33.530Z,31.10
2018-11-27T12:26:02.392Z,30.73
2018-11-27T12:28:30.762Z,31.20
2018-11-27T12:30:59.140Z,32.27
2018-11-27T12:33:27.872Z,33.00
2018-11-27T12:35:56.370Z,32.10
2018-11-27T12:38:24.768Z,30.80
2018-11-27T12:40:53.440Z,32.80
2018-11-27T12:43:21.828Z,31.10
2018-11-27T12:45:50.237Z,31.93
2018-11-27T12:48:18.590Z,31.83
2018-11-27T12:50:48.854Z,33.07
2018-11-27T12:53:18.383Z,32.70
2018-11-27T12:55:48.070Z,32.07
2018-11-27T12:58:16.485Z,32.33
2018-11-27T13:00:44.899Z,31.83
2018-11-27T13:03:13.286Z,31.97
2018-11-27T13:05:43.754Z,31.53
2018-11-27T13:08:15.932Z,32.10
2018-11-27T13:10:44.637Z,31.70
2018-11-27T13:13:13.000Z,32.80
2018-11-27T13:15:41.904Z,32.03
2018-11-27T13:18:10.875Z,31.67
2018-11-27T13:20:40.278Z,33.37
2018-11-27T13:23:08.881Z,31.60
2018-11-27T13:25:38.323Z,32.13
2018-11-27T13:28:08.567Z,33.60
2018-11-27T13:30:48.643Z,32.87
2018-11-27T13:33:51.249Z,32.77
2018-11-27T13:36:19.588Z,33.70
2018-11-27T13:38:48.282Z,32.30
2018-11-27T13:41:16.672Z,33.40
2018-11-27T13:43:45.066Z,33.60
2018-11-27T13:46:13.449Z,33.37
2018-11-27T13:48:41.846Z,33.37
2018-11-27T13:51:10.230Z,34.17
2018-11-27T13:53:38.623Z,35.13
2018-11-27T13:56:07.022Z,34.47
2018-11-27T13:58:35.480Z,34.97
2018-11-27T14:01:03.911Z,34.67
2018-11-27T14:03:32.274Z,34.90
2018-11-27T14:06:00.698Z,33.63
2018-11-27T14:08:29.485Z,34.07
2018-11-27T14:10:58.029Z,34.47
2018-11-27T14:13:26.477Z,34.67
2018-11-27T14:15:55.017Z,34.60
2018-11-27T14:18:23.419Z,34.83
2018-11-27T14:20:51.765Z,35.27
2018-11-27T14:23:20.142Z,33.93
2018-11-27T14:25:48.541Z,34.73
2018-11-27T14:28:17.013Z,34.17
2018-11-27T14:30:45.405Z,33.50
2018-11-27T14:33:13.746Z,32.43
2018-11-27T14:35:42.198Z,34.10
2018-11-27T14:38:10.646Z,35.37
2018-11-27T14:40:39.134Z,33.27
2018-11-27T14:43:07.841Z,34.60
2018-11-27T14:45:36.216Z,34.13
2018-11-27T14:48:04.860Z,34.30
2018-11-27T14:50:33.250Z,33.27
2018-11-27T14:53:01.624Z,34.73
2018-11-27T14:55:31.609Z,33.60
2018-11-27T14:58:00.025Z,33.87
2018-11-27T15:00:28.580Z,33.77
2018-11-27T15:04:26.426Z,34.10
2018-11-27T15:06:54.848Z,34.63
2018-11-27T15:09:23.248Z,33.00
2018-11-27T15:11:51.655Z,34.60
2018-11-27T15:14:25.086Z,34.23
2018-11-27T15:16:48.496Z,36.03
2018-11-27T15:19:16.888Z,35.63
2018-11-27T15:21:45.308Z,33.37
2018-11-27T15:24:13.709Z,34.70
2018-11-27T15:26:42.275Z,34.20
2018-11-27T15:29:10.774Z,35.97
2018-11-27T15:31:39.180Z,33.93
2018-11-27T15:34:07.970Z,33.17
2018-11-27T15:36:37.117Z,45.30
2018-11-27T15:39:08.788Z,50.03
2018-11-27T15:41:37.499Z,50.07
2018-11-27T15:44:06.292Z,49.87
2018-11-27T15:46:34.761Z,50.93
2018-11-27T15:49:03.173Z,51.50
2018-11-27T15:51:31.563Z,51.77
2018-11-27T15:53:59.925Z,50.50
2018-11-27T15:56:28.661Z,50.50
2018-11-27T15:58:57.055Z,49.93
2018-11-27T16:01:25.471Z,48.57
2018-11-27T16:03:53.842Z,47.00
2018-11-27T16:06:22.253Z,48.17
2018-11-27T16:08:51.948Z,45.97
2018-11-27T16:11:19.061Z,45.23
2018-11-27T16:13:49.189Z,45.20
2018-11-27T16:16:15.843Z,43.37
2018-11-27T16:18:44.259Z,42.63
2018-11-27T16:21:12.653Z,41.33
2018-11-27T16:23:41.084Z,37.87
2018-11-27T16:26:09.484Z,40.37
2018-11-27T16:28:37.858Z,37.97
2018-11-27T16:31:06.713Z,34.83
2018-11-27T16:33:35.075Z,45.03
2018-11-27T16:36:03.790Z,45.13
2018-11-27T16:40:01.384Z,42.47
2018-11-27T16:42:30.661Z,42.03
2018-11-27T16:44:58.157Z,42.90
2018-11-27T16:47:26.538Z,43.50
2018-11-27T16:49:54.910Z,42.07
2018-11-27T16:52:23.308Z,42.17
2018-11-27T16:54:51.684Z,41.30
2018-11-27T16:57:20.033Z,43.60
2018-11-27T16:59:48.394Z,42.57
2018-11-27T17:02:16.840Z,43.10
2018-11-27T17:04:45.201Z,44.77
2018-11-27T17:07:13.576Z,44.57
2018-11-27T17:09:41.960Z,43.90
2018-11-27T17:12:10.350Z,45.63
2018-11-27T17:14:38.737Z,44.90
2018-11-27T17:17:07.124Z,45.30
2018-11-27T17:19:35.698Z,43.70
2018-11-27T17:22:04.096Z,44.37
2018-11-27T17:24:32.488Z,42.20
2018-11-27T17:27:00.883Z,44.70
2018-11-27T17:29:29.465Z,42.00
2018-11-27T17:31:57.959Z,38.67
2018-11-27T17:34:26.321Z,44.57
2018-11-27T17:36:54.711Z,41.00
2018-11-27T17:39:23.120Z,32.43
2018-11-27T17:41:51.492Z,45.47
2018-11-27T17:44:19.883Z,50.00
2018-11-27T17:46:48.282Z,49.33
2018-11-27T17:49:16.673Z,52.77
2018-11-27T17:51:45.063Z,51.47
2018-11-27T17:54:13.439Z,52.87
2018-11-27T17:56:41.803Z,52.27
2018-11-27T17:59:10.184Z,49.80
2018-11-27T18:01:38.982Z,50.73
2018-11-27T18:04:07.311Z,50.13
2018-11-27T18:06:35.691Z,51.73
2018-11-27T18:09:05.918Z,53.13
2018-11-27T18:11:34.302Z,51.70
2018-11-27T18:14:02.652Z,53.57
2018-11-27T18:16:31.055Z,52.70
2018-11-27T18:18:59.474Z,54.23
2018-11-27T18:21:27.842Z,52.53
2018-11-27T18:23:56.207Z,54.70
2018-11-27T18:26:24.640Z,53.40
2018-11-27T18:28:53.011Z,53.23
2018-11-27T18:31:21.422Z,56.53
2018-11-27T18:33:50.213Z,50.00
2018-11-27T18:36:18.565Z,52.27
2018-11-27T18:38:46.945Z,51.33
2018-11-27T18:41:15.553Z,53.27
2018-11-27T18:43:44.055Z,52.63
2018-11-27T18:46:13.451Z,51.80
2018-11-27T18:48:42.083Z,47.93
2018-11-27T18:51:10.465Z,45.40
2018-11-27T18:53:38.840Z,42.03
2018-11-27T18:56:07.547Z,52.30
2018-11-27T18:58:35.984Z,58.87
2018-11-27T19:01:04.388Z,58.33
2018-11-27T19:03:32.742Z,59.93
2018-11-27T19:06:01.444Z,60.17
2018-11-27T19:08:29.832Z,60.93
2018-11-27T19:10:58.218Z,60.20
2018-11-27T19:13:26.604Z,59.60
2018-11-27T19:15:54.980Z,62.30
2018-11-27T19:18:25.835Z,62.97
2018-11-27T19:20:54.194Z,62.23
2018-11-27T19:23:23.870Z,64.27
2018-11-27T19:25:52.229Z,60.00
2018-11-27T19:28:20.656Z,58.90
2018-11-27T19:30:51.621Z,62.83
2018-11-27T19:33:20.030Z,64.00
2018-11-27T19:35:48.515Z,60.77
2018-11-27T19:38:18.231Z,57.27
2018-11-27T19:40:46.979Z,60.13
2018-11-27T19:43:15.450Z,57.90
2018-11-27T19:45:43.911Z,54.27
2018-11-27T19:48:13.172Z,55.33
2018-11-27T19:50:42.047Z,54.27
2018-11-27T19:53:12.819Z,54.23
2018-11-27T19:55:41.202Z,53.50
2018-11-27T19:58:10.058Z,49.70
2018-11-27T20:00:38.552Z,48.27
2018-11-27T20:03:08.443Z,45.10
2018-11-27T20:05:36.832Z,45.30
2018-11-27T20:08:06.393Z,58.77
2018-11-27T20:10:34.738Z,57.60
2018-11-27T20:13:03.120Z,61.20
2018-11-27T20:15:31.527Z,61.93
2018-11-27T20:17:59.956Z,60.27
2018-11-27T20:20:28.756Z,62.40
2018-11-27T20:22:57.884Z,62.50
2018-11-27T20:25:26.266Z,62.03
2018-11-27T20:27:54.706Z,61.03
2018-11-27T20:30:25.052Z,61.57
2018-11-27T20:33:57.020Z,62.33
2018-11-27T20:36:25.502Z,61.37
2018-11-27T20:38:53.900Z,60.37
2018-11-27T20:41:22.312Z,62.77
2018-11-27T20:43:50.716Z,60.83
2018-11-27T20:46:19.098Z,56.33
2018-11-27T20:48:47.454Z,59.57
2018-11-27T20:51:15.826Z,56.63
2018-11-27T20:53:44.208Z,60.73
2018-11-27T20:56:13.329Z,58.23
2018-11-27T20:58:42.097Z,56.70
2018-11-27T21:01:10.509Z,55.10
2018-11-27T21:03:38.873Z,54.07
2018-11-27T21:06:07.615Z,50.97
2018-11-27T21:08:36.025Z,47.27
2018-11-27T21:11:08.286Z,42.20
2018-11-27T21:13:33.305Z,57.50
2018-11-27T21:16:01.680Z,62.77
2018-11-27T21:18:30.043Z,63.53
2018-11-27T21:20:58.407Z,62.07
2018-11-27T21:23:26.772Z,60.77
2018-11-27T21:25:59.831Z,60.83
2018-11-27T21:28:28.206Z,60.13
2018-11-27T21:30:56.554Z,59.47
2018-11-27T21:33:24.963Z,60.33
2018-11-27T21:35:53.314Z,58.50
2018-11-27T21:38:21.768Z,59.60
2018-11-27T21:40:50.518Z,57.03
2018-11-27T21:43:18.918Z,58.10
2018-11-27T21:45:47.616Z,58.40
2018-11-27T21:48:16.015Z,58.37
2018-11-27T21:50:44.685Z,57.47
2018-11-27T21:53:13.377Z,55.87
2018-11-27T21:55:42.279Z,50.43
2018-11-27T21:58:10.701Z,51.20
2018-11-27T22:00:40.609Z,49.77
2018-11-27T22:03:09.500Z,53.27
2018-11-27T22:05:37.895Z,49.13
2018-11-27T22:08:07.257Z,50.37
2018-11-27T22:10:35.717Z,46.13
2018-11-27T22:13:04.447Z,45.40
2018-11-27T22:15:35.192Z,41.73
2018-11-27T22:18:03.901Z,39.53
2018-11-27T22:20:32.254Z,36.97
2018-11-27T22:23:00.640Z,44.60
2018-11-27T22:25:29.322Z,44.63
2018-11-27T22:27:57.742Z,45.53
2018-11-27T22:30:26.244Z,41.37
2018-11-27T22:32:55.285Z,42.97
2018-11-27T22:35:23.698Z,43.50
2018-11-27T22:37:52.152Z,41.47
2018-11-27T22:40:22.347Z,43.67
2018-11-27T22:42:51.478Z,34.07
2018-11-27T22:45:23.009Z,33.47
2018-11-27T22:47:51.360Z,32.67
2018-11-27T22:50:20.098Z,26.90
2018-11-27T22:52:48.513Z,33.57
2018-11-27T22:55:17.021Z,35.03
2018-11-27T22:57:45.452Z,16.13
2018-11-27T23:00:20.708Z,35.50
2018-11-27T23:02:49.585Z,31.70
2018-11-27T23:05:18.931Z,33.83
2018-11-27T23:07:47.432Z,34.73
2018-11-27T23:10:15.963Z,30.93
2018-11-27T23:12:44.596Z,33.20
2018-11-27T23:15:15.331Z,33.23
2018-11-27T23:17:44.069Z,32.77
2018-11-27T23:20:14.642Z,33.43
2018-11-27T23:22:43.784Z,32.77
2018-11-27T23:25:13.123Z,32.17
2018-11-27T23:27:41.537Z,28.97
2018-11-27T23:30:12.523Z,32.93
2018-11-27T23:32:40.937Z,27.90
2018-11-27T23:35:09.696Z,32.77
2018-11-27T23:37:38.057Z,32.10
2018-11-27T23:40:10.170Z,30.77
2018-11-27T23:42:38.830Z,30.93
2018-11-27T23:45:12.254Z,31.23
2018-11-27T23:47:40.642Z,32.40
2018-11-27T23:50:10.883Z,30.90
2018-11-27T23:52:39.622Z,32.50
2018-11-27T23:55:09.528Z,31.47
2018-11-27T23:57:37.962Z,29.80
